Terminal Aerodrome Forecast
Issued by NWS Cleveland, OH

Home | Current Version | Previous Version | Graphics & Text | Print | Product List | Glossary On
Versions: 1 2 3 4 5 6 7 8 9 10 11 12 13 14 15 16 17 18
270
FTUS41 KCLE 231121
TAFTOL
TAF
KTOL 231121Z 2312/2412 VRB03KT P6SM BKN250
     FM231500 12008KT P6SM BKN250
     FM232200 14006KT P6SM OVC100
     FM240400 17005KT P6SM -SHRA OVC035
     FM240600 20006KT P6SM -SHRA OVC025
     FM241000 22010KT 4SM BR OVC035=

USA.gov is the U.S. government's official web portal to all federal, state and local government web resources and services.